Time;durP1;ratioP1;P1;durP2;ratioP2;P2;SDS_P1;SDS_P2;PMS_P1;PMS_P2;Temp;Humidity;BMP_temperature;BMP_pressure;BME280_temperature;BME280_humidity;BME280_pressure;Samples;Min_cycle;Max_cycle;Signal;HPM_P1;HPM_P2
2021/04/17 00:01:15;;;;;;;2.97;1.70;;;5.50;99.90;;;;;;5073063;28;20431;-53
2021/04/17 00:03:41;;;;;;;1.80;1.20;;;5.50;99.90;;;;;;5073382;28;20459;-51
2021/04/17 00:06:08;;;;;;;1.90;1.20;;;5.50;99.90;;;;;;5073806;28;20443;-52
2021/04/17 00:08:35;;;;;;;1.75;1.27;;;5.50;99.90;;;;;;5070784;28;20727;-46
2021/04/17 00:11:04;;;;;;;2.60;1.30;;;5.50;99.90;;;;;;5071949;28;20467;-53
2021/04/17 00:13:31;;;;;;;2.10;1.30;;;5.60;99.90;;;;;;5072941;28;20419;-53
2021/04/17 00:15:57;;;;;;;2.15;1.20;;;5.50;99.90;;;;;;5073491;28;20459;-53
2021/04/17 00:18:24;;;;;;;3.03;1.60;;;5.40;99.90;;;;;;5074199;28;20467;-52
2021/04/17 00:20:51;;;;;;;2.30;1.40;;;5.40;99.90;;;;;;5073773;28;20556;-51
2021/04/17 00:23:17;;;;;;;2.13;1.60;;;5.50;99.90;;;;;;5073423;28;20466;-50
2021/04/17 00:25:43;;;;;;;2.40;1.40;;;5.50;99.90;;;;;;5073990;28;20467;-49
2021/04/17 00:28:11;;;;;;;2.10;1.30;;;5.50;99.90;;;;;;5073724;28;20683;-50
2021/04/17 00:30:37;;;;;;;2.45;1.30;;;5.50;99.90;;;;;;5073692;28;20471;-49
2021/04/17 00:33:04;;;;;;;2.60;1.30;;;5.60;99.90;;;;;;5074499;28;20715;-53
2021/04/17 00:35:30;;;;;;;2.75;1.50;;;5.50;99.90;;;;;;5074308;28;20529;-51
2021/04/17 00:37:57;;;;;;;1.85;1.25;;;5.50;99.90;;;;;;5073503;28;20910;-53
2021/04/17 00:40:23;;;;;;;2.10;1.30;;;5.50;99.90;;;;;;5073160;28;20463;-51
2021/04/17 00:42:49;;;;;;;2.40;1.30;;;5.50;99.90;;;;;;5073095;28;20429;-53
2021/04/17 00:45:17;;;;;;;2.97;1.50;;;5.50;99.90;;;;;;5073505;28;20769;-54
2021/04/17 00:47:44;;;;;;;2.30;1.50;;;5.60;99.90;;;;;;5072997;28;20769;-52
2021/04/17 00:50:12;;;;;;;2.20;1.30;;;5.60;99.90;;;;;;5071815;28;20434;-54
2021/04/17 00:52:40;;;;;;;2.20;1.30;;;5.60;99.90;;;;;;5072118;28;20862;-49
2021/04/17 00:55:08;;;;;;;2.33;1.30;;;5.60;99.90;;;;;;5073201;28;20476;-52
2021/04/17 00:57:35;;;;;;;3.60;1.70;;;5.70;99.90;;;;;;5072678;28;20464;-48
2021/04/17 01:00:01;;;;;;;1.85;1.30;;;5.60;99.90;;;;;;5072591;28;20478;-52
2021/04/17 01:02:33;;;;;;;2.00;1.30;;;5.60;99.90;;;;;;5073881;28;20416;-49
2021/04/17 01:05:01;;;;;;;1.85;1.20;;;5.70;99.90;;;;;;5076330;28;20850;-47
2021/04/17 01:07:34;;;;;;;3.00;1.50;;;5.60;99.90;;;;;;5076811;28;20785;-51
2021/04/17 01:10:07;;;;;;;2.90;1.60;;;5.60;99.90;;;;;;5076361;28;20838;-53
2021/04/17 01:12:37;;;;;;;2.10;1.50;;;5.60;99.90;;;;;;5076027;28;20420;-52
2021/04/17 01:15:08;;;;;;;2.80;1.40;;;5.70;99.90;;;;;;5076405;28;20720;-49
2021/04/17 01:17:37;;;;;;;2.10;1.40;;;5.60;99.90;;;;;;5076248;28;20521;-51
2021/04/17 01:20:10;;;;;;;2.45;1.40;;;5.60;99.90;;;;;;5077441;28;20456;-50
2021/04/17 01:22:37;;;;;;;2.25;1.40;;;5.50;99.90;;;;;;5078092;28;20454;-47
2021/04/17 01:25:08;;;;;;;1.75;1.55;;;5.50;99.90;;;;;;5078662;28;20812;-51
2021/04/17 01:27:37;;;;;;;2.03;1.35;;;5.60;99.90;;;;;;5077925;28;20514;-54
2021/04/17 01:30:07;;;;;;;2.00;1.20;;;5.50;99.90;;;;;;5077725;28;20419;-50
2021/04/17 01:32:35;;;;;;;2.00;1.40;;;5.50;99.90;;;;;;5078215;28;20512;-48
2021/04/17 01:35:02;;;;;;;1.90;1.33;;;5.40;99.90;;;;;;5078001;28;20904;-52
2021/04/17 01:38:02;;;;;;;2.30;1.60;;;5.30;99.90;;;;;;5078272;28;20416;-53
2021/04/17 01:40:33;;;;;;;2.70;1.40;;;5.30;99.90;;;;;;5077074;28;20827;-53
2021/04/17 01:43:01;;;;;;;2.20;1.40;;;5.30;99.90;;;;;;5076476;28;20787;-53
2021/04/17 01:45:31;;;;;;;2.53;1.55;;;5.30;99.90;;;;;;5077386;28;20920;-52
2021/04/17 01:48:00;;;;;;;2.73;1.70;;;5.20;99.90;;;;;;5077060;28;20434;-50
2021/04/17 01:50:30;;;;;;;2.50;1.77;;;5.30;99.90;;;;;;5075822;28;20463;-51
2021/04/17 01:52:59;;;;;;;3.15;1.50;;;5.20;99.90;;;;;;5076160;28;20910;-52
2021/04/17 01:55:27;;;;;;;2.92;2.00;;;5.20;99.90;;;;;;5074306;28;20463;-53
2021/04/17 01:57:54;;;;;;;2.10;1.50;;;5.20;99.90;;;;;;5075435;28;20874;-48
2021/04/17 02:00:22;;;;;;;3.13;1.73;;;5.30;99.90;;;;;;5074954;28;20462;-50
2021/04/17 02:02:50;;;;;;;3.33;1.50;;;5.30;99.90;;;;;;5073923;28;20459;-49
2021/04/17 02:05:17;;;;;;;2.20;1.60;;;5.30;99.90;;;;;;5075071;28;20474;-52
2021/04/17 02:07:43;;;;;;;2.10;1.30;;;5.20;99.90;;;;;;5074936;28;20841;-51
2021/04/17 02:10:11;;;;;;;2.72;1.38;;;5.20;99.90;;;;;;5074745;28;20431;-51
2021/04/17 02:12:37;;;;;;;3.15;1.60;;;5.20;99.90;;;;;;5076033;28;20834;-49
2021/04/17 02:15:05;;;;;;;2.47;1.80;;;5.30;99.90;;;;;;5077123;28;20467;-53
2021/04/17 02:17:42;;;;;;;2.80;1.80;;;5.30;99.90;;;;;;5077245;28;20862;-49
2021/04/17 02:20:13;;;;;;;4.03;1.80;;;5.30;99.90;;;;;;5077282;28;20463;-52
2021/04/17 02:22:41;;;;;;;2.88;1.77;;;5.40;99.90;;;;;;5076822;28;20492;-52
2021/04/17 02:25:09;;;;;;;2.85;1.70;;;5.50;99.90;;;;;;5076712;28;20481;-51
2021/04/17 02:27:36;;;;;;;2.83;1.80;;;5.50;99.90;;;;;;5077088;28;20497;-48
2021/04/17 02:30:04;;;;;;;2.38;2.00;;;5.40;99.90;;;;;;5076763;28;20427;-54
2021/04/17 02:32:31;;;;;;;2.35;1.80;;;5.40;99.90;;;;;;5076842;28;20726;-53
2021/04/17 02:34:58;;;;;;;3.40;2.20;;;5.40;99.90;;;;;;5076980;28;21336;-51
2021/04/17 02:37:25;;;;;;;2.58;2.13;;;5.40;99.90;;;;;;5076705;28;20896;-53
2021/04/17 02:39:51;;;;;;;3.10;2.00;;;5.40;99.90;;;;;;5076059;28;20467;-51
2021/04/17 02:42:17;;;;;;;3.35;2.20;;;5.40;99.90;;;;;;5076595;28;20466;-53
2021/04/17 02:44:44;;;;;;;2.67;2.22;;;5.40;99.90;;;;;;5076303;28;20521;-52
2021/04/17 02:47:10;;;;;;;2.55;1.80;;;5.40;99.90;;;;;;5076485;28;20434;-47
2021/04/17 02:49:37;;;;;;;4.35;2.30;;;5.40;99.90;;;;;;5076711;28;20494;-52
2021/04/17 02:52:06;;;;;;;3.10;1.73;;;5.40;99.90;;;;;;5076659;28;20423;-54
2021/04/17 02:54:32;;;;;;;4.10;1.80;;;5.40;99.90;;;;;;5076436;28;20434;-53
2021/04/17 02:56:59;;;;;;;2.80;2.10;;;5.40;99.90;;;;;;5076571;28;20458;-53
2021/04/17 02:59:25;;;;;;;5.53;2.45;;;5.40;99.90;;;;;;5076134;28;20474;-52
2021/04/17 03:01:52;;;;;;;2.90;1.80;;;5.30;99.90;;;;;;5076405;28;20852;-52
2021/04/17 03:04:18;;;;;;;3.83;2.08;;;5.20;99.90;;;;;;5075955;28;20420;-53
2021/04/17 03:06:44;;;;;;;3.67;2.10;;;5.20;99.90;;;;;;5076421;28;20454;-50
2021/04/17 03:09:12;;;;;;;3.35;2.00;;;5.20;99.90;;;;;;5076193;28;20420;-53
2021/04/17 03:11:38;;;;;;;4.07;2.60;;;5.20;99.90;;;;;;5076365;28;20485;-50
2021/04/17 03:14:05;;;;;;;3.30;2.90;;;5.20;99.90;;;;;;5075994;28;20447;-48
2021/04/17 03:16:31;;;;;;;5.00;2.70;;;5.10;99.90;;;;;;5076074;28;20477;-53
2021/04/17 03:18:57;;;;;;;3.90;2.72;;;5.00;99.90;;;;;;5075714;28;20471;-51
2021/04/17 03:21:24;;;;;;;3.60;2.63;;;4.90;99.90;;;;;;5075990;28;20458;-51
2021/04/17 03:23:50;;;;;;;3.78;2.70;;;4.90;99.90;;;;;;5075501;28;20462;-51
2021/04/17 03:26:18;;;;;;;4.75;3.17;;;5.00;99.90;;;;;;5075086;28;20480;-49
2021/04/17 03:28:44;;;;;;;3.70;2.40;;;5.00;99.90;;;;;;5075721;28;20463;-51
2021/04/17 03:31:11;;;;;;;3.90;3.10;;;5.00;99.90;;;;;;5075724;28;20522;-47
2021/04/17 03:33:38;;;;;;;4.28;2.97;;;5.10;99.90;;;;;;5075540;28;20464;-48
2021/04/17 03:36:05;;;;;;;6.15;3.63;;;5.10;99.90;;;;;;5075633;28;20467;-53
2021/04/17 03:38:32;;;;;;;4.93;3.50;;;5.00;99.90;;;;;;5075031;28;20887;-48
2021/04/17 03:40:58;;;;;;;4.20;2.95;;;5.00;99.90;;;;;;5075112;28;20530;-53
2021/04/17 03:43:26;;;;;;;4.20;3.20;;;4.90;99.90;;;;;;5075119;28;20568;-52
2021/04/17 03:45:52;;;;;;;3.55;2.58;;;4.90;99.90;;;;;;5075278;28;20783;-51
2021/04/17 03:48:19;;;;;;;4.88;3.20;;;4.90;99.90;;;;;;5073961;28;20853;-47
2021/04/17 03:50:45;;;;;;;4.50;3.00;;;5.00;99.90;;;;;;5072526;28;20911;-51
2021/04/17 03:53:12;;;;;;;4.07;3.10;;;4.90;99.90;;;;;;5072349;28;20451;-54
2021/04/17 03:55:38;;;;;;;4.20;2.92;;;4.80;99.90;;;;;;5072431;28;20463;-51
2021/04/17 03:58:05;;;;;;;5.10;3.22;;;4.90;99.90;;;;;;5072257;28;20532;-52
2021/04/17 04:00:32;;;;;;;4.60;3.17;;;5.00;99.90;;;;;;5071988;28;20458;-49
2021/04/17 04:02:59;;;;;;;3.92;2.47;;;5.00;99.90;;;;;;5072792;28;20431;-50
2021/04/17 04:05:25;;;;;;;3.55;2.65;;;5.10;99.90;;;;;;5074746;28;20431;-49
2021/04/17 04:07:51;;;;;;;3.10;2.80;;;5.20;99.90;;;;;;5074729;28;20466;-53
2021/04/17 04:10:18;;;;;;;5.32;3.38;;;5.20;99.90;;;;;;5074524;28;20427;-48
2021/04/17 04:12:45;;;;;;;4.30;3.10;;;5.20;99.90;;;;;;5074392;28;20426;-48
2021/04/17 04:15:14;;;;;;;5.10;3.30;;;5.20;99.90;;;;;;5074724;28;20424;-46
2021/04/17 04:17:41;;;;;;;4.05;2.90;;;5.10;99.90;;;;;;5073919;28;20473;-48
2021/04/17 04:20:09;;;;;;;4.30;3.30;;;5.30;99.90;;;;;;5072841;28;20544;-52
2021/04/17 04:22:36;;;;;;;3.67;2.70;;;5.40;99.90;;;;;;5073305;28;20455;-51
2021/04/17 04:25:04;;;;;;;4.30;2.60;;;5.50;99.90;;;;;;5072910;28;20463;-56
2021/04/17 04:27:30;;;;;;;5.90;3.60;;;5.60;99.90;;;;;;5073507;28;20451;-54
2021/04/17 04:29:56;;;;;;;3.97;3.13;;;5.60;99.90;;;;;;5073155;28;20415;-53
2021/04/17 04:32:23;;;;;;;3.90;3.13;;;5.50;99.90;;;;;;5073405;28;20447;-55
2021/04/17 04:34:50;;;;;;;4.82;3.15;;;5.40;99.90;;;;;;5075078;28;20835;-53
2021/04/17 04:37:17;;;;;;;5.60;3.60;;;5.30;99.90;;;;;;5074513;28;20459;-57
2021/04/17 04:39:43;;;;;;;4.35;3.65;;;5.20;99.90;;;;;;5074221;28;20424;-53
2021/04/17 04:42:10;;;;;;;5.07;3.57;;;5.10;99.90;;;;;;5074481;28;20439;-53
2021/04/17 04:44:37;;;;;;;3.83;2.88;;;5.10;99.90;;;;;;5075173;28;20445;-51
2021/04/17 04:47:04;;;;;;;6.40;4.15;;;5.00;99.90;;;;;;5074458;28;20770;-52
2021/04/17 04:49:30;;;;;;;5.10;3.70;;;5.00;99.90;;;;;;5074240;28;20423;-53
2021/04/17 04:51:58;;;;;;;4.25;3.55;;;5.10;99.90;;;;;;5092148;28;20438;-51
2021/04/17 04:54:24;;;;;;;5.00;3.70;;;5.20;99.90;;;;;;5093030;28;20514;-52
2021/04/17 04:56:51;;;;;;;4.20;3.70;;;5.20;99.90;;;;;;5093845;28;20425;-56
2021/04/17 04:59:17;;;;;;;5.23;3.63;;;5.30;99.90;;;;;;5090681;28;20457;-52
2021/04/17 05:01:44;;;;;;;5.38;3.45;;;5.20;99.90;;;;;;5070948;28;20485;-51
2021/04/17 05:04:10;;;;;;;6.05;4.22;;;5.20;99.90;;;;;;5086657;28;20445;-53
2021/04/17 05:06:37;;;;;;;6.22;3.90;;;5.20;99.90;;;;;;5090603;28;20429;-55
2021/04/17 05:09:05;;;;;;;4.93;3.30;;;5.30;99.90;;;;;;5089850;28;20495;-52
2021/04/17 05:11:32;;;;;;;5.22;3.53;;;5.30;99.90;;;;;;5087196;28;20915;-52
2021/04/17 05:13:59;;;;;;;5.15;3.50;;;5.40;99.90;;;;;;5087266;28;20483;-51
2021/04/17 05:16:25;;;;;;;5.68;3.97;;;5.50;99.90;;;;;;5088104;28;20580;-52
2021/04/17 05:18:52;;;;;;;6.23;3.30;;;5.40;99.90;;;;;;5089001;28;20430;-52
2021/04/17 05:21:18;;;;;;;5.95;3.83;;;5.30;99.90;;;;;;5089103;28;20436;-54
2021/04/17 05:23:45;;;;;;;5.07;3.90;;;5.30;99.90;;;;;;5090914;28;20417;-50
2021/04/17 05:26:12;;;;;;;6.45;3.60;;;5.30;99.90;;;;;;5091787;28;20437;-53
2021/04/17 05:28:38;;;;;;;7.15;4.60;;;5.30;99.90;;;;;;5093422;28;20457;-53
2021/04/17 05:31:05;;;;;;;6.47;4.63;;;5.40;99.90;;;;;;5093655;28;20430;-50
2021/04/17 05:33:31;;;;;;;5.25;3.45;;;5.40;99.90;;;;;;5082500;28;20419;-53
2021/04/17 05:35:58;;;;;;;8.25;5.85;;;5.40;99.90;;;;;;5074262;28;20438;-52
2021/04/17 05:38:25;;;;;;;6.28;3.80;;;5.50;99.90;;;;;;5092647;28;20437;-51
2021/04/17 05:40:52;;;;;;;5.18;3.30;;;5.60;99.90;;;;;;5092741;28;20465;-53
2021/04/17 05:43:19;;;;;;;5.32;4.07;;;5.70;99.90;;;;;;5092445;28;20425;-54
2021/04/17 05:45:46;;;;;;;5.85;3.72;;;5.90;99.90;;;;;;5092869;28;20437;-54
2021/04/17 05:48:12;;;;;;;4.55;3.33;;;6.00;99.90;;;;;;5091547;28;20422;-53
2021/04/17 05:50:39;;;;;;;6.15;3.28;;;6.00;99.90;;;;;;5097029;28;20480;-51
2021/04/17 05:53:05;;;;;;;4.15;2.90;;;6.10;99.90;;;;;;5097369;28;20460;-50
2021/04/17 05:55:32;;;;;;;4.25;3.03;;;6.20;99.90;;;;;;5096643;28;20422;-53
2021/04/17 05:57:58;;;;;;;5.97;3.22;;;6.20;99.90;;;;;;5096284;28;20432;-47
2021/04/17 06:00:26;;;;;;;4.20;2.38;;;6.20;99.90;;;;;;5096248;28;20476;-51
2021/04/17 06:02:53;;;;;;;3.88;2.78;;;6.40;99.90;;;;;;5096468;28;20693;-50
2021/04/17 06:05:20;;;;;;;6.18;3.50;;;6.50;99.90;;;;;;5095853;28;20454;-49
2021/04/17 06:07:46;;;;;;;5.10;3.53;;;6.50;99.90;;;;;;5088878;28;21173;-49
2021/04/17 06:10:14;;;;;;;4.38;3.20;;;6.40;99.90;;;;;;5096872;28;20426;-50
2021/04/17 06:12:41;;;;;;;6.85;3.53;;;6.50;99.90;;;;;;5097035;28;20429;-51
2021/04/17 06:15:09;;;;;;;5.88;3.78;;;6.50;99.90;;;;;;5079603;28;20428;-51
2021/04/17 06:17:36;;;;;;;4.93;3.08;;;6.60;99.90;;;;;;5089147;28;20721;-50
2021/04/17 06:20:04;;;;;;;7.45;4.15;;;6.60;99.90;;;;;;5095339;28;20706;-51
2021/04/17 06:22:30;;;;;;;5.45;3.60;;;6.50;99.90;;;;;;5092855;28;20881;-52
2021/04/17 06:24:57;;;;;;;6.15;4.20;;;6.70;99.90;;;;;;5092195;28;20458;-51
2021/04/17 06:27:23;;;;;;;4.90;3.45;;;6.60;99.90;;;;;;5093077;28;20429;-52
2021/04/17 06:29:49;;;;;;;5.70;3.95;;;6.50;99.90;;;;;;5093288;28;20472;-52
2021/04/17 06:32:17;;;;;;;4.47;3.05;;;6.30;99.90;;;;;;5093150;28;20422;-51
2021/04/17 06:34:44;;;;;;;6.20;3.47;;;6.30;99.90;;;;;;5085321;28;20434;-52
2021/04/17 06:37:10;;;;;;;6.07;3.47;;;6.60;99.90;;;;;;5092166;28;20468;-53
2021/04/17 06:39:37;;;;;;;6.97;2.85;;;6.70;99.90;;;;;;5094219;28;20438;-50
2021/04/17 06:42:07;;;;;;;4.30;2.88;;;6.90;99.90;;;;;;5094750;28;20523;-48
2021/04/17 06:44:35;;;;;;;6.28;3.83;;;7.20;99.90;;;;;;5094178;28;20506;-50
2021/04/17 06:47:01;;;;;;;6.60;4.40;;;7.40;99.90;;;;;;5092555;28;20434;-52
2021/04/17 06:49:28;;;;;;;4.90;3.57;;;7.50;99.90;;;;;;5093403;28;20485;-51
2021/04/17 06:51:56;;;;;;;6.85;4.82;;;7.40;99.90;;;;;;5094344;28;21009;-49
2021/04/17 06:55:12;;;;;;;6.72;4.18;;;7.30;99.90;;;;;;5091345;28;20552;-53
2021/04/17 06:57:40;;;;;;;6.03;4.32;;;7.00;99.90;;;;;;5076065;28;20835;-50
2021/04/17 07:00:10;;;;;;;6.43;4.63;;;6.90;99.90;;;;;;5074416;28;20435;-50
2021/04/17 07:02:36;;;;;;;6.97;4.60;;;6.50;99.90;;;;;;5084996;28;20425;-54
2021/04/17 07:05:04;;;;;;;5.88;4.43;;;6.60;99.90;;;;;;5095868;28;20453;-52
2021/04/17 07:07:32;;;;;;;5.93;4.10;;;7.00;99.90;;;;;;5081901;28;20424;-52
2021/04/17 07:09:59;;;;;;;6.23;4.40;;;7.10;99.90;;;;;;5086627;28;20733;-52
2021/04/17 07:12:26;;;;;;;5.20;3.42;;;6.90;99.90;;;;;;5095412;28;20453;-52
2021/04/17 07:14:53;;;;;;;5.20;4.10;;;7.10;99.90;;;;;;5094025;28;20476;-52
2021/04/17 07:17:20;;;;;;;5.47;4.07;;;7.50;99.90;;;;;;5094171;28;20428;-51
2021/04/17 07:19:52;;;;;;;4.60;3.50;;;7.60;99.90;;;;;;5092387;28;20437;-52
2021/04/17 07:22:21;;;;;;;5.00;3.00;;;7.70;99.90;;;;;;5090500;28;20473;-50
2021/04/17 07:24:50;;;;;;;5.30;3.42;;;7.80;99.90;;;;;;5093149;28;20743;-51
2021/04/17 07:27:35;;;;;;;6.93;3.00;;;7.80;99.90;;;;;;5085484;28;20422;-52
2021/04/17 07:30:05;;;;;;;6.00;4.00;;;8.10;99.90;;;;;;5093825;28;20472;-56
2021/04/17 07:32:31;;;;;;;6.22;3.35;;;8.10;99.90;;;;;;5077337;28;20854;-48
2021/04/17 07:35:06;;;;;;;4.45;2.65;;;8.00;99.90;;;;;;5091530;28;20429;-51
2021/04/17 07:37:33;;;;;;;6.53;3.90;;;8.20;99.90;;;;;;5088807;28;20455;-53
2021/04/17 07:40:20;;;;;;;4.40;3.13;;;8.50;99.90;;;;;;5080241;28;20439;-51
2021/04/17 07:42:50;;;;;;;5.10;2.70;;;8.80;99.90;;;;;;5076510;28;20419;-50
2021/04/17 07:45:25;;;;;;;5.68;3.55;;;9.00;99.90;;;;;;5090829;28;20882;-50
2021/04/17 07:47:58;;;;;;;4.18;2.78;;;9.10;99.90;;;;;;5091416;28;20461;-54
2021/04/17 07:50:31;;;;;;;4.60;3.72;;;9.00;99.90;;;;;;5089904;28;20430;-53
2021/04/17 07:52:57;;;;;;;4.63;2.08;;;9.00;99.90;;;;;;5082496;28;20611;-53
2021/04/17 07:55:30;;;;;;;5.07;3.00;;;8.90;99.90;;;;;;5088396;28;20425;-49
2021/04/17 07:57:57;;;;;;;5.15;3.40;;;8.90;99.90;;;;;;5073452;28;20439;-54
2021/04/17 08:00:26;;;;;;;4.82;2.95;;;8.70;99.90;;;;;;5076930;28;20436;-54
2021/04/17 08:02:55;;;;;;;4.30;2.80;;;8.30;99.90;;;;;;5074358;28;20430;-52
2021/04/17 08:05:24;;;;;;;5.68;2.97;;;8.10;99.90;;;;;;5073639;28;20462;-53
2021/04/17 08:07:52;;;;;;;3.80;2.05;;;7.90;99.90;;;;;;5090621;28;20432;-52
2021/04/17 08:10:20;;;;;;;4.97;2.10;;;8.30;99.90;;;;;;5091963;28;20462;-52
2021/04/17 08:12:48;;;;;;;3.73;2.73;;;8.70;99.90;;;;;;5072927;28;20479;-54
2021/04/17 08:15:17;;;;;;;3.97;2.42;;;8.70;99.90;;;;;;5089339;28;20434;-53
2021/04/17 08:17:45;;;;;;;4.13;2.33;;;8.50;99.90;;;;;;5091171;28;20878;-54
2021/04/17 08:20:15;;;;;;;2.90;1.85;;;8.50;99.90;;;;;;5072464;28;20695;-51
2021/04/17 08:22:45;;;;;;;4.30;2.85;;;8.70;99.90;;;;;;5076793;28;20458;-54
2021/04/17 08:25:13;;;;;;;4.05;2.75;;;8.90;99.90;;;;;;5081318;28;20840;-55
2021/04/17 08:27:41;;;;;;;3.83;2.15;;;9.20;99.90;;;;;;5083154;28;20429;-53
2021/04/17 08:30:20;;;;;;;3.40;1.90;;;9.30;99.90;;;;;;5093359;28;20491;-51
2021/04/17 08:32:46;;;;;;;3.08;1.80;;;9.50;99.90;;;;;;5091011;28;20548;-52
2021/04/17 08:35:14;;;;;;;2.70;2.10;;;9.60;99.90;;;;;;5091137;28;20941;-53
2021/04/17 08:38:10;;;;;;;3.58;2.20;;;9.40;99.90;;;;;;5084871;28;20891;-53
2021/04/17 08:40:49;;;;;;;2.67;1.70;;;9.30;99.90;;;;;;5072184;28;20548;-54
2021/04/17 08:43:34;;;;;;;3.60;2.08;;;9.40;99.90;;;;;;5071515;28;20427;-55
2021/04/17 08:46:08;;;;;;;5.40;2.80;;;9.10;99.90;;;;;;5074815;28;20431;-55
2021/04/17 08:48:50;;;;;;;2.97;1.58;;;9.10;99.90;;;;;;5091105;28;20717;-55
2021/04/17 08:51:37;;;;;;;2.10;1.30;;;9.10;99.90;;;;;;5090046;28;20752;-55
2021/04/17 08:54:18;;;;;;;2.85;1.77;;;9.00;99.90;;;;;;5086581;28;20461;-54
2021/04/17 08:56:47;;;;;;;4.80;1.65;;;9.20;99.90;;;;;;5092288;28;20426;-54
2021/04/17 08:59:18;;;;;;;3.20;1.60;;;9.30;99.90;;;;;;5077197;28;20987;-53
2021/04/17 09:01:46;;;;;;;4.40;1.88;;;9.50;99.90;;;;;;5088886;28;20460;-52
2021/04/17 09:04:13;;;;;;;2.37;1.10;;;9.40;99.90;;;;;;5083357;28;20923;-54
2021/04/17 09:06:43;;;;;;;3.58;1.30;;;9.60;99.90;;;;;;5092132;28;20880;-56
2021/04/17 09:09:32;;;;;;;2.63;1.30;;;10.20;99.90;;;;;;5073799;28;20424;-54
2021/04/17 09:12:19;;;;;;;4.20;1.60;;;10.50;99.90;;;;;;5079046;28;20434;-56
2021/04/17 09:14:53;;;;;;;2.58;1.60;;;10.70;99.90;;;;;;5083038;28;20843;-58
2021/04/17 09:17:44;;;;;;;1.90;1.47;;;10.70;99.90;;;;;;5074925;28;20427;-57
2021/04/17 09:20:29;;;;;;;2.25;1.48;;;10.60;99.90;;;;;;5073280;28;20581;-52
2021/04/17 09:22:56;;;;;;;3.00;1.50;;;10.50;99.90;;;;;;5073602;28;20855;-54
2021/04/17 09:25:41;;;;;;;2.70;1.75;;;10.60;99.90;;;;;;5076129;28;20428;-54
2021/04/17 09:28:07;;;;;;;3.20;1.60;;;10.40;99.90;;;;;;5078578;28;20518;-56
2021/04/17 09:30:34;;;;;;;3.20;1.70;;;10.30;99.90;;;;;;5079334;28;20436;-54
2021/04/17 09:33:01;;;;;;;2.88;1.67;;;10.50;99.90;;;;;;5092754;28;20443;-53
2021/04/17 09:35:30;;;;;;;1.77;1.42;;;10.60;99.90;;;;;;5096453;28;20437;-54
2021/04/17 09:38:09;;;;;;;2.75;1.90;;;10.90;99.90;;;;;;5097192;28;20425;-54
2021/04/17 09:40:38;;;;;;;2.35;1.30;;;11.00;99.90;;;;;;5095461;28;20444;-49
2021/04/17 09:43:06;;;;;;;2.00;1.30;;;10.90;99.90;;;;;;5093862;28;20430;-55
2021/04/17 09:45:36;;;;;;;1.80;1.10;;;10.80;99.90;;;;;;5096654;28;20433;-56
2021/04/17 09:48:05;;;;;;;2.10;1.40;;;10.80;99.90;;;;;;5096474;28;20424;-56
2021/04/17 09:50:33;;;;;;;2.10;1.13;;;10.50;99.90;;;;;;5075887;28;20430;-56
2021/04/17 09:53:11;;;;;;;3.22;1.20;;;10.10;99.90;;;;;;5075998;28;20734;-52
2021/04/17 09:55:55;;;;;;;1.90;1.10;;;10.30;99.90;;;;;;5076105;28;20424;-52
2021/04/17 09:58:33;;;;;;;1.87;1.10;;;10.40;99.90;;;;;;5078088;28;20769;-55
2021/04/17 10:01:08;;;;;;;3.20;1.10;;;10.60;99.90;;;;;;5085249;28;21175;-58
2021/04/17 10:03:37;;;;;;;1.60;1.15;;;10.60;99.90;;;;;;5081313;28;20423;-55
2021/04/17 10:06:05;;;;;;;2.95;1.30;;;10.70;99.90;;;;;;5083886;28;20491;-56
2021/04/17 10:08:34;;;;;;;1.50;1.00;;;10.70;99.90;;;;;;5082236;28;20459;-52
2021/04/17 10:11:02;;;;;;;2.50;1.00;;;10.80;99.90;;;;;;5085513;28;20779;-54
2021/04/17 10:13:43;;;;;;;1.92;1.20;;;11.10;99.90;;;;;;5090950;28;20426;-54
2021/04/17 10:16:12;;;;;;;2.65;1.20;;;11.20;99.90;;;;;;5091261;28;20535;-55
2021/04/17 10:18:43;;;;;;;1.60;1.00;;;11.40;99.90;;;;;;5072863;28;20430;-53
2021/04/17 10:21:10;;;;;;;2.10;0.90;;;11.30;99.90;;;;;;5084011;28;20434;-55
2021/04/17 10:23:36;;;;;;;2.40;1.20;;;11.30;99.90;;;;;;5075473;28;21072;-55
2021/04/17 10:26:07;;;;;;;2.67;1.20;;;11.20;99.90;;;;;;5078630;28;20430;-57
2021/04/17 10:28:35;;;;;;;2.90;1.20;;;11.00;99.90;;;;;;5090211;28;20908;-55
2021/04/17 10:31:19;;;;;;;2.92;1.10;;;10.90;99.90;;;;;;5089108;28;20436;-55
2021/04/17 10:33:48;;;;;;;2.10;1.30;;;11.10;99.90;;;;;;5080759;28;20501;-54
2021/04/17 10:36:20;;;;;;;2.00;1.00;;;11.30;99.90;;;;;;5087141;28;20487;-55
2021/04/17 10:38:47;;;;;;;1.20;0.80;;;11.30;99.90;;;;;;5083443;28;20430;-53
2021/04/17 10:41:27;;;;;;;1.60;1.10;;;11.50;99.90;;;;;;5092033;28;20438;-56
2021/04/17 10:44:11;;;;;;;1.95;1.10;;;11.90;99.90;;;;;;5076144;28;20955;-54
2021/04/17 10:46:42;;;;;;;27.80;18.83;;;11.80;99.90;;;;;;5077283;28;20475;-54
2021/04/17 10:49:10;;;;;;;1.60;1.05;;;11.70;99.90;;;;;;5086982;28;20425;-55
2021/04/17 10:51:38;;;;;;;1.60;1.10;;;11.60;99.90;;;;;;5095247;28;20430;-54
2021/04/17 10:54:05;;;;;;;1.60;1.10;;;11.50;99.90;;;;;;5094925;28;20417;-55
2021/04/17 10:56:33;;;;;;;2.33;1.00;;;11.30;99.90;;;;;;5093739;28;20454;-54
2021/04/17 10:59:01;;;;;;;1.73;1.00;;;10.90;99.90;;;;;;5094912;28;20433;-57
2021/04/17 11:01:29;;;;;;;2.40;1.20;;;10.60;99.90;;;;;;5094159;28;20461;-56
2021/04/17 11:03:58;;;;;;;1.42;0.90;;;10.50;99.90;;;;;;5092005;28;20493;-55
2021/04/17 11:06:27;;;;;;;1.67;1.00;;;10.90;99.90;;;;;;5092704;28;20463;-53
2021/04/17 11:09:05;;;;;;;1.63;0.95;;;11.30;99.90;;;;;;5094066;28;20500;-54
2021/04/17 11:11:32;;;;;;;1.52;0.80;;;11.40;99.90;;;;;;5086970;28;20443;-54
2021/04/17 11:14:00;;;;;;;1.60;0.90;;;11.80;99.90;;;;;;5078407;28;20453;-58
2021/04/17 11:16:35;;;;;;;1.47;0.90;;;12.10;99.90;;;;;;5078296;28;20738;-58
2021/04/17 11:19:02;;;;;;;2.72;1.00;;;12.40;99.90;;;;;;5086269;28;20425;-55
2021/04/17 11:21:29;;;;;;;2.40;0.80;;;12.40;99.90;;;;;;5092008;28;20425;-54
2021/04/17 11:23:57;;;;;;;1.30;0.85;;;12.70;99.90;;;;;;5092168;28;20438;-56
2021/04/17 11:26:25;;;;;;;1.38;0.80;;;13.30;99.90;;;;;;5081585;28;20434;-55
2021/04/17 11:28:54;;;;;;;3.40;0.80;;;13.40;99.90;;;;;;5090875;28;20475;-56
2021/04/17 11:31:22;;;;;;;1.80;0.70;;;13.30;99.90;;;;;;5092295;28;20752;-55
2021/04/17 11:33:49;;;;;;;1.40;1.00;;;13.00;99.90;;;;;;5090668;28;20764;-56
2021/04/17 11:36:16;;;;;;;1.10;0.70;;;13.00;99.90;;;;;;5091303;28;20857;-57
2021/04/17 11:38:44;;;;;;;1.45;0.80;;;13.00;99.90;;;;;;5089901;28;20465;-57
2021/04/17 11:41:10;;;;;;;2.10;0.77;;;12.70;99.90;;;;;;5092438;28;20864;-56
2021/04/17 11:43:37;;;;;;;1.00;0.70;;;11.90;99.90;;;;;;5090698;28;20414;-56
2021/04/17 11:46:03;;;;;;;2.70;0.80;;;12.00;99.90;;;;;;5077809;28;20482;-54
2021/04/17 11:48:30;;;;;;;2.40;0.70;;;12.20;99.90;;;;;;5088248;28;20931;-53
2021/04/17 11:50:57;;;;;;;1.80;0.80;;;12.50;99.90;;;;;;5092990;28;20453;-57
2021/04/17 11:53:23;;;;;;;1.70;0.70;;;12.80;99.90;;;;;;5088407;28;20422;-54
2021/04/17 11:55:51;;;;;;;1.60;0.80;;;13.20;99.90;;;;;;5094247;28;20844;-54
2021/04/17 11:58:18;;;;;;;2.00;0.70;;;13.80;98.70;;;;;;5093234;28;20418;-53
2021/04/17 12:00:45;;;;;;;1.70;0.70;;;14.40;99.70;;;;;;5091383;28;20942;-58
2021/04/17 12:03:15;;;;;;;1.50;0.90;;;14.90;97.60;;;;;;5092430;28;20418;-54
2021/04/17 12:05:41;;;;;;;2.60;0.73;;;14.90;95.10;;;;;;5092216;28;20579;-54
2021/04/17 12:08:08;;;;;;;1.50;0.80;;;14.70;95.60;;;;;;5092191;28;20414;-54
2021/04/17 12:10:34;;;;;;;3.67;0.80;;;14.10;94.80;;;;;;5090885;28;20739;-56
2021/04/17 12:13:02;;;;;;;1.40;0.80;;;13.80;94.60;;;;;;5092369;28;20756;-54
2021/04/17 12:15:28;;;;;;;1.10;0.70;;;13.70;94.80;;;;;;5093818;28;20529;-54
2021/04/17 12:17:54;;;;;;;1.30;0.80;;;13.50;94.40;;;;;;5093862;28;20453;-54
2021/04/17 12:20:21;;;;;;;1.60;0.85;;;13.60;94.00;;;;;;5092414;28;20818;-54
2021/04/17 12:22:47;;;;;;;2.58;1.38;;;13.10;94.80;;;;;;5093137;28;20464;-54
2021/04/17 12:25:14;;;;;;;2.70;0.90;;;13.10;96.30;;;;;;5092375;28;20426;-56
2021/04/17 12:27:40;;;;;;;1.15;0.70;;;13.50;95.80;;;;;;5091285;28;20437;-52
2021/04/17 12:30:10;;;;;;;1.50;0.80;;;13.40;95.90;;;;;;5090762;28;20497;-52
2021/04/17 12:32:37;;;;;;;1.40;0.70;;;13.60;93.90;;;;;;5091017;28;20448;-55
2021/04/17 12:35:05;;;;;;;1.40;0.70;;;13.60;93.70;;;;;;5088637;28;20540;-51
2021/04/17 12:37:33;;;;;;;0.90;0.57;;;13.20;93.20;;;;;;5091217;28;20425;-53
2021/04/17 12:39:59;;;;;;;1.38;0.60;;;13.40;94.50;;;;;;5089907;28;20453;-54
2021/04/17 12:42:25;;;;;;;1.00;0.70;;;13.70;93.40;;;;;;5090337;28;20542;-52
2021/04/17 12:44:52;;;;;;;4.07;1.73;;;14.00;92.60;;;;;;5091378;28;20421;-57
2021/04/17 12:47:20;;;;;;;1.80;1.10;;;13.80;92.90;;;;;;5091702;28;20961;-57
2021/04/17 12:49:46;;;;;;;1.10;0.70;;;13.90;94.10;;;;;;5092228;28;20434;-55
2021/04/17 12:52:12;;;;;;;1.40;0.80;;;13.80;93.60;;;;;;5092132;28;20502;-56
2021/04/17 12:54:39;;;;;;;0.93;0.60;;;14.10;92.30;;;;;;5090855;28;20486;-56
2021/04/17 12:57:06;;;;;;;2.53;0.70;;;14.10;92.30;;;;;;5090911;28;20428;-55
2021/04/17 12:59:32;;;;;;;1.20;0.70;;;14.30;91.40;;;;;;5092341;28;20498;-55
2021/04/17 13:01:59;;;;;;;1.80;0.60;;;14.20;90.60;;;;;;5093152;28;20781;-54